sensor_id;sensor_type;location;lat;lon;timestamp;pressure;altitude;pressure_sealevel;temperature;humidity
47712;BME280;57457;51.634;5.886;2023-06-26T00:05:25;101000;;;22.4;75.7
47712;BME280;57457;51.634;5.886;2023-06-26T00:25:05;101000;;;22.4;74.9
47712;BME280;57457;51.634;5.886;2023-06-26T01:40:17;100900;;;22.5;73.8
47712;BME280;57457;51.634;5.886;2023-06-26T02:02:28;100900;;;22.5;73.7
47712;BME280;57457;51.634;5.886;2023-06-26T02:34:32;100900;;;22.5;75.9
47712;BME280;57457;51.634;5.886;2023-06-26T03:03:03;101000;;;22.3;77.2
47712;BME280;57457;51.634;5.886;2023-06-26T03:27:08;101000;;;21.8;78.1
47712;BME280;57457;51.634;5.886;2023-06-26T04:08:43;101000;;;21.4;76.7
47712;BME280;57457;51.634;5.886;2023-06-26T05:05:45;101100;;;20.6;78.4
47712;BME280;57457;51.634;5.886;2023-06-26T05:22:51;101100;;;20.6;79.0
47712;BME280;57457;51.634;5.886;2023-06-26T05:39:30;101100;;;20.6;79.2
47712;BME280;57457;51.634;5.886;2023-06-26T05:54:25;101100;;;20.8;78.9
47712;BME280;57457;51.634;5.886;2023-06-26T06:11:30;101100;;;20.9;78.2
47712;BME280;57457;51.634;5.886;2023-06-26T06:34:23;101200;;;21.1;76.3
47712;BME280;57457;51.634;5.886;2023-06-26T07:43:11;101200;;;21.9;71.5
47712;BME280;57457;51.634;5.886;2023-06-26T08:02:17;101300;;;22.4;69.7
47712;BME280;57457;51.634;5.886;2023-06-26T08:29:58;101300;;;22.8;71.1
47712;BME280;57457;51.634;5.886;2023-06-26T09:01:12;101300;;;23.2;62.6
47712;BME280;57457;51.634;5.886;2023-06-26T09:34:13;101300;;;23.9;50.1
47712;BME280;57457;51.634;5.886;2023-06-26T10:06:21;101400;;;25.0;51.5
47712;BME280;57457;51.634;5.886;2023-06-26T10:27:41;101400;;;25.7;50.1
47712;BME280;57457;51.634;5.886;2023-06-26T11:02:55;101400;;;26.1;45.7
47712;BME280;57457;51.634;5.886;2023-06-26T11:49:58;101500;;;26.6;41.6
47712;BME280;57457;51.634;5.886;2023-06-26T12:57:58;101500;;;25.7;60.9
47712;BME280;57457;51.634;5.886;2023-06-26T13:11:19;101500;;;25.6;62.9
47712;BME280;57457;51.634;5.886;2023-06-26T13:24:40;101500;;;25.4;63.5
47712;BME280;57457;51.634;5.886;2023-06-26T13:46:19;101500;;;25.6;59.8
47712;BME280;57457;51.634;5.886;2023-06-26T14:13:01;101500;;;26.0;58.6
47712;BME280;57457;51.634;5.886;2023-06-26T14:26:23;101600;;;26.2;58.5
47712;BME280;57457;51.634;5.886;2023-06-26T14:39:42;101600;;;26.3;58.3
47712;BME280;57457;51.634;5.886;2023-06-26T14:53:02;101600;;;26.3;58.0
47712;BME280;57457;51.634;5.886;2023-06-26T15:06:23;101600;;;26.4;57.9
47712;BME280;57457;51.634;5.886;2023-06-26T15:19:45;101600;;;26.4;57.8
47712;BME280;57457;51.634;5.886;2023-06-26T15:33:06;101600;;;26.4;57.5
47712;BME280;57457;51.634;5.886;2023-06-26T15:46:26;101600;;;26.4;57.6
47712;BME280;57457;51.634;5.886;2023-06-26T15:59:47;101600;;;26.4;57.3
47712;BME280;57457;51.634;5.886;2023-06-26T16:13:08;101600;;;26.4;57.3
47712;BME280;57457;51.634;5.886;2023-06-26T16:26:30;101600;;;26.4;56.6
47712;BME280;57457;51.634;5.886;2023-06-26T16:39:51;101600;;;26.4;56.7
47712;BME280;57457;51.634;5.886;2023-06-26T16:53:13;101600;;;26.4;56.3
47712;BME280;57457;51.634;5.886;2023-06-26T17:06:34;101600;;;26.3;56.3
47712;BME280;57457;51.634;5.886;2023-06-26T17:19:55;101600;;;26.3;56.4
47712;BME280;57457;51.634;5.886;2023-06-26T17:33:17;101600;;;26.3;56.4
47712;BME280;57457;51.634;5.886;2023-06-26T17:46:36;101600;;;26.3;56.2
47712;BME280;57457;51.634;5.886;2023-06-26T17:59:58;101600;;;26.4;55.0
47712;BME280;57457;51.634;5.886;2023-06-26T18:13:19;101600;;;26.4;53.2
47712;BME280;57457;51.634;5.886;2023-06-26T18:26:40;101600;;;26.4;52.1
47712;BME280;57457;51.634;5.886;2023-06-26T18:40:02;101600;;;26.3;51.4
47712;BME280;57457;51.634;5.886;2023-06-26T18:53:23;101600;;;26.3;51.0
47712;BME280;57457;51.634;5.886;2023-06-26T19:06:44;101600;;;26.3;50.2
47712;BME280;57457;51.634;5.886;2023-06-26T19:20:06;101600;;;26.3;49.4
47712;BME280;57457;51.634;5.886;2023-06-26T19:33:27;101700;;;26.2;49.6
47712;BME280;57457;51.634;5.886;2023-06-26T19:46:48;101700;;;26.2;49.2
47712;BME280;57457;51.634;5.886;2023-06-26T20:00:10;101700;;;26.2;49.2
47712;BME280;57457;51.634;5.886;2023-06-26T20:13:31;101700;;;26.1;48.9
47712;BME280;57457;51.634;5.886;2023-06-26T20:26:52;101700;;;26.1;49.1
47712;BME280;57457;51.634;5.886;2023-06-26T20:40:14;101700;;;26.1;49.5
47712;BME280;57457;51.634;5.886;2023-06-26T20:53:35;101700;;;26.0;49.2
47712;BME280;57457;51.634;5.886;2023-06-26T21:06:55;101700;;;26.0;50.1
47712;BME280;57457;51.634;5.886;2023-06-26T21:20:16;101700;;;26.0;50.1
47712;BME280;57457;51.634;5.886;2023-06-26T21:33:38;101700;;;26.0;50.8
47712;BME280;57457;51.634;5.886;2023-06-26T21:46:59;101700;;;26.0;51.3
47712;BME280;57457;51.634;5.886;2023-06-26T22:00:20;101700;;;26.0;51.8
47712;BME280;57457;51.634;5.886;2023-06-26T22:13:42;101700;;;26.0;52.1
47712;BME280;57457;51.634;5.886;2023-06-26T22:27:03;101700;;;26.0;52.5
47712;BME280;57457;51.634;5.886;2023-06-26T22:40:24;101700;;;26.0;52.4
47712;BME280;57457;51.634;5.886;2023-06-26T22:53:46;101700;;;26.0;52.2
47712;BME280;57457;51.634;5.886;2023-06-26T23:07:07;101700;;;26.0;52.1
47712;BME280;57457;51.634;5.886;2023-06-26T23:20:28;101700;;;26.0;52.1
47712;BME280;57457;51.634;5.886;2023-06-26T23:33:48;101700;;;26.0;52.2
47712;BME280;57457;51.634;5.886;2023-06-26T23:47:09;101700;;;26.0;52.1
